Friday, January 19, 2018, 2:34 AM EST
Back to Local

KSBY, Salisbury-wicomico Cty Reg

Location: Salisbury, MD, United States Lat: 38.333
Local Time: 2:34 AM EST ( 7:34 GMT) Lon: -75.5
Time Zone: US/Eastern Elev: 52 ft

Show me the last for .
Show Decoded

2018-01-19 01:54 METAR KSBY 190654Z AUTO 25007KT 10SM CLR M02/M07 A3012 RMK AO2 SLP204 T10171067
                 =
2018-01-19 00:54 METAR KSBY 190554Z AUTO 26005KT 10SM CLR M03/M08 A3013 RMK AO2 SLP206 T10281078
                 11017 21050 50005 =
2018-01-18 23:54 METAR KSBY 190454Z AUTO 22006KT 10SM CLR M04/M08 A3014 RMK AO2 SLP211 T10391078
                 400391067 =
2018-01-18 22:54 METAR KSBY 190354Z AUTO 24004KT 10SM CLR M02/M08 A3013 RMK AO2 SLP205 T10171078
                 =
2018-01-18 21:54 METAR KSBY 190254Z 25004KT 10SM CLR M03/M08 A3012 RMK AO2 SLP201 T10281078 53008
                 =
2018-01-18 20:54 METAR KSBY 190154Z 24004KT 10SM CLR M02/M08 A3011 RMK AO2 SLP197 T10171083 =
2018-01-18 19:54 METAR KSBY 190054Z 20004KT 10SM CLR M03/M09 A3010 RMK AO2 SLP195 T10281089 =
2018-01-18 18:54 METAR KSBY 182354Z 00000KT 10SM CLR M02/M09 A3009 RMK AO2 SLP192 T10221094 10039
                 21022 53020 =
2018-01-18 17:54 METAR KSBY 182254Z 25004KT 10SM CLR 00/M11 A3006 RMK AO2 SLP183 T00001111 =
2018-01-18 16:54 METAR KSBY 182154Z 24008KT 10SM CLR 01/M11 A3004 RMK AO2 SLP177 T00111106 =
2018-01-18 15:54 METAR KSBY 182054Z 27009KT 10SM CLR 03/M13 A3003 RMK AO2 SLP173 T00331128 55014
                 =
2018-01-18 14:54 METAR KSBY 181954Z 30010KT 10SM CLR 03/M12 A3003 RMK AO2 SLP172 T00331122 =
2018-01-18 13:54 METAR KSBY 181854Z 28014G24KT 10SM CLR 02/M13 A3005 RMK AO2 SLP177 T00221133 =
2018-01-18 12:54 METAR KSBY 181754Z 29012KT 10SM CLR 01/M13 A3007 RMK AO2 SLP186 T00061128 10011
                 21067 57028 =
2018-01-18 11:54 METAR KSBY 181654Z 31017G21KT 10SM CLR 01/M13 A3009 RMK AO2 PRESFR SLP192
                 T00061133 =
2018-01-18 10:54 METAR KSBY 181554Z 31011KT 10SM CLR M01/M13 A3014 RMK AO2 SLP209 T10111128 =
2018-01-18 09:54 METAR KSBY 181454Z 30013KT 10SM CLR M03/M13 A3016 RMK AO2 SLP215 T10331128 51012
                 =
2018-01-18 08:54 METAR KSBY 181354Z 32013G18KT 10SM CLR M05/M12 A3016 RMK AO2 SLP215 T10501122 =
2018-01-18 07:54 METAR KSBY 181254Z 30008KT 10SM CLR M07/M12 A3017 RMK AO2 SLP218 T10671122 =
2018-01-18 06:54 METAR KSBY 181154Z 31010G19KT 10SM CLR M07/M12 A3012 RMK AO2 SLP203 T10671122
                 11050 21067 51005 =
2018-01-18 05:54 METAR KSBY 181054Z AUTO 32012G21KT 10SM CLR M07/M13 A3012 RMK AO2 SLP203
                 T10671128 =
2018-01-18 04:54 METAR KSBY 180954Z AUTO 34010G18KT 10SM OVC085 M06/M13 A3016 RMK AO2 SLP215
                 T10611128 =
2018-01-18 03:54 METAR KSBY 180854Z AUTO 34016G25KT 10SM CLR M06/M13 A3011 RMK AO2 PK WND
                 34026/0837 SLP199 T10611128 56021 =
2018-01-18 02:54 METAR KSBY 180754Z AUTO 33017G23KT 10SM CLR M06/M13 A3013 RMK AO2 SLP207
                 T10561128 =

Support USWX by starting your Amazon purchase here.